Terminal Aerodrome Forecast
Issued by NWS

Home | Current Version | Previous Version | Text Only | Print | Product List | Glossary On
Versions: 1 2 3 4 5 6 7 8 9 10 11 12 13 14 15 16 17 18 19 20 21 22 23 24
000
FTUS43 KGRR 241100 RRA
TAFAZO
TAF
KAZO 241145Z 2412/2512 22014G22KT 6SM -RA BR OVC008
     FM241800 21020G35KT 6SM -SHRA BR OVC008
     FM250000 22015G25KT 5SM -SHSN BR BKN015=

USA.gov is the U.S. government's official web portal to all federal, state and local government web resources and services.